sensor_id;sensor_type;location;lat;lon;timestamp;pressure;altitude;pressure_sealevel;temperature;humidity
40946;BME280;55635;50.264;11.918;2022-08-21T00:01:38;95694.63;;;19.05;86.91
40946;BME280;55635;50.264;11.918;2022-08-21T00:04:19;95698.94;;;19.06;86.95
40946;BME280;55635;50.264;11.918;2022-08-21T00:07:01;95683.75;;;18.99;87.08
40946;BME280;55635;50.264;11.918;2022-08-21T00:09:42;95681.66;;;19.01;86.18
40946;BME280;55635;50.264;11.918;2022-08-21T00:12:23;95677.78;;;18.97;85.52
40946;BME280;55635;50.264;11.918;2022-08-21T00:15:07;95681.44;;;18.91;85.62
40946;BME280;55635;50.264;11.918;2022-08-21T00:17:49;95686.31;;;18.94;85.46
40946;BME280;55635;50.264;11.918;2022-08-21T00:20:30;95692.19;;;18.91;85.14
40946;BME280;55635;50.264;11.918;2022-08-21T00:23:11;95691.00;;;18.87;84.78
40946;BME280;55635;50.264;11.918;2022-08-21T00:25:53;95691.81;;;18.88;84.83
40946;BME280;55635;50.264;11.918;2022-08-21T00:28:34;95686.94;;;18.73;85.99
40946;BME280;55635;50.264;11.918;2022-08-21T00:31:17;95687.03;;;18.67;86.26
40946;BME280;55635;50.264;11.918;2022-08-21T00:33:58;95687.03;;;18.67;86.09
40946;BME280;55635;50.264;11.918;2022-08-21T00:36:40;95691.72;;;18.71;86.58
40946;BME280;55635;50.264;11.918;2022-08-21T00:39:21;95689.63;;;18.73;85.31
40946;BME280;55635;50.264;11.918;2022-08-21T00:42:02;95685.53;;;18.71;86.17
40946;BME280;55635;50.264;11.918;2022-08-21T00:44:46;95674.53;;;18.72;87.27
40946;BME280;55635;50.264;11.918;2022-08-21T00:47:27;95673.13;;;18.70;87.27
40946;BME280;55635;50.264;11.918;2022-08-21T00:50:11;95681.56;;;18.73;86.73
40946;BME280;55635;50.264;11.918;2022-08-21T00:52:52;95686.09;;;18.73;86.02
40946;BME280;55635;50.264;11.918;2022-08-21T00:55:36;95692.19;;;18.68;85.84
40946;BME280;55635;50.264;11.918;2022-08-21T00:58:18;95686.22;;;18.66;85.57
40946;BME280;55635;50.264;11.918;2022-08-21T01:01:00;95677.59;;;18.64;85.36
40946;BME280;55635;50.264;11.918;2022-08-21T01:03:42;95679.44;;;18.64;86.14
40946;BME280;55635;50.264;11.918;2022-08-21T01:06:23;95678.75;;;18.68;86.64
40946;BME280;55635;50.264;11.918;2022-08-21T01:09:04;95679.91;;;18.61;86.28
40946;BME280;55635;50.264;11.918;2022-08-21T01:11:45;95673.84;;;18.54;86.81
40946;BME280;55635;50.264;11.918;2022-08-21T01:14:26;95681.06;;;18.53;85.90
40946;BME280;55635;50.264;11.918;2022-08-21T01:17:12;95673.34;;;18.45;86.10
40946;BME280;55635;50.264;11.918;2022-08-21T01:19:59;95673.59;;;18.43;85.98
40946;BME280;55635;50.264;11.918;2022-08-21T01:22:40;95675.44;;;18.43;86.35
40946;BME280;55635;50.264;11.918;2022-08-21T01:25:21;95669.13;;;18.37;86.65
40946;BME280;55635;50.264;11.918;2022-08-21T01:28:11;95670.19;;;18.25;87.67
40946;BME280;55635;50.264;11.918;2022-08-21T01:30:53;95674.47;;;18.26;87.75
40946;BME280;55635;50.264;11.918;2022-08-21T01:33:34;95678.81;;;18.27;86.88
40946;BME280;55635;50.264;11.918;2022-08-21T01:36:15;95670.63;;;18.22;87.35
40946;BME280;55635;50.264;11.918;2022-08-21T01:38:57;95670.75;;;18.27;86.88
40946;BME280;55635;50.264;11.918;2022-08-21T01:41:37;95671.00;;;18.25;86.72
40946;BME280;55635;50.264;11.918;2022-08-21T01:44:22;95664.81;;;18.25;87.04
40946;BME280;55635;50.264;11.918;2022-08-21T01:47:07;95655.69;;;18.26;85.92
40946;BME280;55635;50.264;11.918;2022-08-21T01:49:48;95661.50;;;18.23;85.09
40946;BME280;55635;50.264;11.918;2022-08-21T01:52:29;95661.31;;;18.24;84.75
40946;BME280;55635;50.264;11.918;2022-08-21T01:55:12;95657.22;;;18.22;84.70
40946;BME280;55635;50.264;11.918;2022-08-21T01:57:53;95654.75;;;18.20;84.29
40946;BME280;55635;50.264;11.918;2022-08-21T02:00:34;95661.66;;;18.16;84.71
40946;BME280;55635;50.264;11.918;2022-08-21T02:03:16;95660.47;;;18.12;84.71
40946;BME280;55635;50.264;11.918;2022-08-21T02:05:57;95648.66;;;18.02;84.82
40946;BME280;55635;50.264;11.918;2022-08-21T02:08:38;95665.00;;;18.00;85.93
40946;BME280;55635;50.264;11.918;2022-08-21T02:11:19;95659.16;;;17.91;86.73
40946;BME280;55635;50.264;11.918;2022-08-21T02:14:00;95664.81;;;17.83;86.08
40946;BME280;55635;50.264;11.918;2022-08-21T02:16:44;95658.53;;;17.89;86.33
40946;BME280;55635;50.264;11.918;2022-08-21T02:19:25;95666.47;;;17.96;86.05
40946;BME280;55635;50.264;11.918;2022-08-21T02:22:09;95672.13;;;18.06;85.37
40946;BME280;55635;50.264;11.918;2022-08-21T02:24:50;95671.75;;;18.03;86.78
40946;BME280;55635;50.264;11.918;2022-08-21T02:27:40;95662.66;;;18.04;86.99
40946;BME280;55635;50.264;11.918;2022-08-21T02:30:30;95652.16;;;18.02;86.05
40946;BME280;55635;50.264;11.918;2022-08-21T02:33:12;95665.19;;;17.87;86.54
40946;BME280;55635;50.264;11.918;2022-08-21T02:35:54;95668.59;;;17.94;86.29
40946;BME280;55635;50.264;11.918;2022-08-21T02:38:39;95665.94;;;18.06;86.86
40946;BME280;55635;50.264;11.918;2022-08-21T02:41:22;95665.00;;;18.12;85.87
40946;BME280;55635;50.264;11.918;2022-08-21T02:44:03;95673.91;;;18.24;85.72
40946;BME280;55635;50.264;11.918;2022-08-21T02:46:44;95680.19;;;18.18;86.10
40946;BME280;55635;50.264;11.918;2022-08-21T02:49:25;95675.75;;;18.23;85.65
40946;BME280;55635;50.264;11.918;2022-08-21T02:52:06;95672.63;;;18.26;86.30
40946;BME280;55635;50.264;11.918;2022-08-21T02:54:47;95670.28;;;18.30;86.32
40946;BME280;55635;50.264;11.918;2022-08-21T02:57:28;95662.03;;;18.31;86.33
40946;BME280;55635;50.264;11.918;2022-08-21T03:00:10;95659.66;;;18.35;86.11
40946;BME280;55635;50.264;11.918;2022-08-21T03:02:53;95662.25;;;18.41;86.31
40946;BME280;55635;50.264;11.918;2022-08-21T03:05:36;95647.78;;;18.42;86.34
40946;BME280;55635;50.264;11.918;2022-08-21T03:08:19;95653.25;;;18.47;87.06
40946;BME280;55635;50.264;11.918;2022-08-21T03:11:00;95667.63;;;18.53;86.67
40946;BME280;55635;50.264;11.918;2022-08-21T03:13:42;95658.19;;;18.51;86.33
40946;BME280;55635;50.264;11.918;2022-08-21T03:16:23;95662.38;;;18.46;86.67
40946;BME280;55635;50.264;11.918;2022-08-21T03:19:04;95669.28;;;18.54;87.39
40946;BME280;55635;50.264;11.918;2022-08-21T03:21:45;95668.34;;;18.60;87.60
40946;BME280;55635;50.264;11.918;2022-08-21T03:24:26;95665.44;;;18.73;86.77
40946;BME280;55635;50.264;11.918;2022-08-21T03:27:07;95671.84;;;18.72;87.65
40946;BME280;55635;50.264;11.918;2022-08-21T03:29:47;95660.63;;;18.75;88.46
40946;BME280;55635;50.264;11.918;2022-08-21T03:32:28;95661.94;;;18.73;88.47
40946;BME280;55635;50.264;11.918;2022-08-21T03:35:12;95661.81;;;18.79;88.92
40946;BME280;55635;50.264;11.918;2022-08-21T03:37:54;95663.56;;;18.85;88.95
40946;BME280;55635;50.264;11.918;2022-08-21T03:40:36;95669.50;;;18.87;88.57
40946;BME280;55635;50.264;11.918;2022-08-21T03:43:17;95662.63;;;18.91;88.45
40946;BME280;55635;50.264;11.918;2022-08-21T03:46:01;95661.41;;;18.99;88.00
40946;BME280;55635;50.264;11.918;2022-08-21T03:48:42;95659.69;;;19.05;88.57
40946;BME280;55635;50.264;11.918;2022-08-21T03:51:23;95659.69;;;19.05;87.88
40946;BME280;55635;50.264;11.918;2022-08-21T03:54:07;95671.00;;;19.07;88.26
40946;BME280;55635;50.264;11.918;2022-08-21T03:56:51;95663.88;;;19.00;88.41
40946;BME280;55635;50.264;11.918;2022-08-21T03:59:32;95673.31;;;19.15;87.79
40946;BME280;55635;50.264;11.918;2022-08-21T04:02:16;95672.28;;;19.16;87.84
40946;BME280;55635;50.264;11.918;2022-08-21T04:05:00;95671.94;;;19.12;87.92
40946;BME280;55635;50.264;11.918;2022-08-21T04:07:41;95675.00;;;18.92;89.01
40946;BME280;55635;50.264;11.918;2022-08-21T04:10:23;95660.94;;;19.02;88.81
40946;BME280;55635;50.264;11.918;2022-08-21T04:13:07;95672.41;;;19.09;88.95
40946;BME280;55635;50.264;11.918;2022-08-21T04:15:49;95676.81;;;19.15;88.32
40946;BME280;55635;50.264;11.918;2022-08-21T04:18:30;95682.22;;;19.03;89.22
40946;BME280;55635;50.264;11.918;2022-08-21T04:21:11;95672.06;;;19.06;90.27
40946;BME280;55635;50.264;11.918;2022-08-21T04:23:55;95670.22;;;18.94;90.57
40946;BME280;55635;50.264;11.918;2022-08-21T04:26:38;95676.97;;;18.97;90.49
40946;BME280;55635;50.264;11.918;2022-08-21T04:29:19;95686.06;;;18.96;90.99
40946;BME280;55635;50.264;11.918;2022-08-21T04:32:00;95684.69;;;18.93;90.96
40946;BME280;55635;50.264;11.918;2022-08-21T04:34:41;95682.91;;;18.99;90.85
40946;BME280;55635;50.264;11.918;2022-08-21T04:37:22;95684.66;;;19.05;90.64
40946;BME280;55635;50.264;11.918;2022-08-21T04:40:05;95689.34;;;19.10;90.38
40946;BME280;55635;50.264;11.918;2022-08-21T04:42:58;95681.50;;;19.08;90.20
40946;BME280;55635;50.264;11.918;2022-08-21T04:45:44;95686.09;;;19.08;90.41
40946;BME280;55635;50.264;11.918;2022-08-21T04:48:26;95687.56;;;19.15;89.86
40946;BME280;55635;50.264;11.918;2022-08-21T04:51:18;95696.69;;;19.26;89.78
40946;BME280;55635;50.264;11.918;2022-08-21T04:54:12;95693.28;;;19.30;89.30
40946;BME280;55635;50.264;11.918;2022-08-21T04:57:01;95694.66;;;19.33;89.09
40946;BME280;55635;50.264;11.918;2022-08-21T04:59:50;95697.72;;;19.25;89.37
40946;BME280;55635;50.264;11.918;2022-08-21T05:02:32;95688.72;;;19.31;88.96
40946;BME280;55635;50.264;11.918;2022-08-21T05:05:14;95697.13;;;19.34;88.76
40946;BME280;55635;50.264;11.918;2022-08-21T05:07:57;95704.72;;;19.37;89.20
40946;BME280;55635;50.264;11.918;2022-08-21T05:10:39;95706.50;;;19.43;88.52
40946;BME280;55635;50.264;11.918;2022-08-21T05:13:21;95701.47;;;19.47;88.52
40946;BME280;55635;50.264;11.918;2022-08-21T05:16:02;95702.28;;;19.47;88.36
40946;BME280;55635;50.264;11.918;2022-08-21T05:18:43;95707.66;;;19.47;88.84
40946;BME280;55635;50.264;11.918;2022-08-21T05:21:24;95710.19;;;19.54;88.35
40946;BME280;55635;50.264;11.918;2022-08-21T05:24:05;95704.03;;;19.53;88.25
40946;BME280;55635;50.264;11.918;2022-08-21T05:26:46;95712.41;;;19.57;88.02
40946;BME280;55635;50.264;11.918;2022-08-21T05:29:27;95704.69;;;19.61;88.22
40946;BME280;55635;50.264;11.918;2022-08-21T05:32:13;95714.88;;;19.59;88.46
40946;BME280;55635;50.264;11.918;2022-08-21T05:34:55;95715.25;;;19.50;88.15
40946;BME280;55635;50.264;11.918;2022-08-21T05:37:36;95719.69;;;19.57;87.83
40946;BME280;55635;50.264;11.918;2022-08-21T05:40:17;95709.16;;;19.55;87.05
40946;BME280;55635;50.264;11.918;2022-08-21T05:42:59;95717.31;;;19.60;87.27
40946;BME280;55635;50.264;11.918;2022-08-21T05:45:41;95709.84;;;19.62;86.90
40946;BME280;55635;50.264;11.918;2022-08-21T05:48:24;95715.09;;;19.69;87.21
40946;BME280;55635;50.264;11.918;2022-08-21T05:51:12;95704.06;;;19.70;87.21
40946;BME280;55635;50.264;11.918;2022-08-21T05:53:53;95711.19;;;19.76;86.69
40946;BME280;55635;50.264;11.918;2022-08-21T05:56:34;95714.22;;;19.80;86.48
40946;BME280;55635;50.264;11.918;2022-08-21T05:59:15;95712.91;;;19.82;86.25
40946;BME280;55635;50.264;11.918;2022-08-21T06:01:56;95717.66;;;19.92;85.63
40946;BME280;55635;50.264;11.918;2022-08-21T06:04:39;95708.22;;;19.89;85.14
40946;BME280;55635;50.264;11.918;2022-08-21T06:07:20;95710.75;;;19.96;84.92
40946;BME280;55635;50.264;11.918;2022-08-21T06:10:01;95719.75;;;20.01;85.35
40946;BME280;55635;50.264;11.918;2022-08-21T06:12:46;95726.09;;;20.12;84.78
40946;BME280;55635;50.264;11.918;2022-08-21T06:15:27;95731.28;;;20.14;85.06
40946;BME280;55635;50.264;11.918;2022-08-21T06:18:08;95728.09;;;20.17;84.75
40946;BME280;55635;50.264;11.918;2022-08-21T06:20:49;95736.59;;;20.25;84.48
40946;BME280;55635;50.264;11.918;2022-08-21T06:23:30;95735.09;;;20.29;84.54
40946;BME280;55635;50.264;11.918;2022-08-21T06:26:13;95721.06;;;20.27;84.65
40946;BME280;55635;50.264;11.918;2022-08-21T06:28:54;95725.69;;;20.32;84.03
40946;BME280;55635;50.264;11.918;2022-08-21T06:31:35;95725.13;;;20.46;84.67
40946;BME280;55635;50.264;11.918;2022-08-21T06:34:17;95730.53;;;20.46;84.51
40946;BME280;55635;50.264;11.918;2022-08-21T06:36:58;95725.66;;;20.60;83.65
40946;BME280;55635;50.264;11.918;2022-08-21T06:39:39;95730.94;;;20.72;83.68
40946;BME280;55635;50.264;11.918;2022-08-21T06:42:20;95736.63;;;20.92;84.60
40946;BME280;55635;50.264;11.918;2022-08-21T06:45:01;95734.03;;;20.97;82.74
40946;BME280;55635;50.264;11.918;2022-08-21T06:47:42;95736.56;;;21.03;82.29
40946;BME280;55635;50.264;11.918;2022-08-21T06:50:26;95743.28;;;21.17;81.98
40946;BME280;55635;50.264;11.918;2022-08-21T06:53:10;95736.31;;;21.22;81.35
40946;BME280;55635;50.264;11.918;2022-08-21T06:55:54;95719.31;;;21.21;81.47
40946;BME280;55635;50.264;11.918;2022-08-21T06:58:35;95726.16;;;21.29;81.13
40946;BME280;55635;50.264;11.918;2022-08-21T07:01:16;95726.56;;;21.37;80.67
40946;BME280;55635;50.264;11.918;2022-08-21T07:03:58;95731.84;;;21.49;80.14
40946;BME280;55635;50.264;11.918;2022-08-21T07:06:39;95717.41;;;21.60;79.55
40946;BME280;55635;50.264;11.918;2022-08-21T07:09:20;95725.53;;;21.87;80.40
40946;BME280;55635;50.264;11.918;2022-08-21T07:12:02;95723.06;;;22.29;80.09
40946;BME280;55635;50.264;11.918;2022-08-21T07:14:43;95719.25;;;22.30;77.57
40946;BME280;55635;50.264;11.918;2022-08-21T07:17:25;95725.31;;;22.42;76.13
40946;BME280;55635;50.264;11.918;2022-08-21T07:20:06;95720.66;;;22.64;76.04
40946;BME280;55635;50.264;11.918;2022-08-21T07:22:48;95720.06;;;23.25;75.68
40946;BME280;55635;50.264;11.918;2022-08-21T07:25:29;95720.13;;;23.36;72.57
40946;BME280;55635;50.264;11.918;2022-08-21T07:28:10;95719.13;;;23.47;72.24
40946;BME280;55635;50.264;11.918;2022-08-21T07:30:54;95726.19;;;23.53;71.00
40946;BME280;55635;50.264;11.918;2022-08-21T07:33:36;95715.50;;;23.88;70.28
40946;BME280;55635;50.264;11.918;2022-08-21T07:36:17;95722.00;;;23.87;68.66
40946;BME280;55635;50.264;11.918;2022-08-21T07:38:58;95713.59;;;23.89;68.42
40946;BME280;55635;50.264;11.918;2022-08-21T07:41:39;95712.91;;;24.23;66.44
40946;BME280;55635;50.264;11.918;2022-08-21T07:44:20;95716.22;;;24.51;66.31
40946;BME280;55635;50.264;11.918;2022-08-21T07:47:01;95713.22;;;24.47;63.98
40946;BME280;55635;50.264;11.918;2022-08-21T07:49:42;95708.63;;;25.03;65.32
40946;BME280;55635;50.264;11.918;2022-08-21T07:52:23;95709.91;;;25.51;61.57
40946;BME280;55635;50.264;11.918;2022-08-21T07:55:05;95707.72;;;26.22;60.47
40946;BME280;55635;50.264;11.918;2022-08-21T07:57:46;95694.97;;;26.18;59.84
40946;BME280;55635;50.264;11.918;2022-08-21T08:00:29;95699.28;;;26.24;60.21
40946;BME280;55635;50.264;11.918;2022-08-21T08:03:11;95704.16;;;26.27;60.67
40946;BME280;55635;50.264;11.918;2022-08-21T08:05:52;95701.22;;;26.18;58.59
40946;BME280;55635;50.264;11.918;2022-08-21T08:08:33;95701.13;;;25.79;60.71
40946;BME280;55635;50.264;11.918;2022-08-21T08:11:14;95700.34;;;25.74;60.27
40946;BME280;55635;50.264;11.918;2022-08-21T08:13:55;95701.94;;;25.75;60.60
40946;BME280;55635;50.264;11.918;2022-08-21T08:16:38;95702.88;;;25.35;59.60
40946;BME280;55635;50.264;11.918;2022-08-21T08:19:19;95709.34;;;25.54;59.13
40946;BME280;55635;50.264;11.918;2022-08-21T08:22:00;95708.63;;;24.93;58.34
40946;BME280;55635;50.264;11.918;2022-08-21T08:24:40;95705.41;;;24.86;59.74
40946;BME280;55635;50.264;11.918;2022-08-21T08:27:22;95704.56;;;24.60;58.34
40946;BME280;55635;50.264;11.918;2022-08-21T08:30:05;95705.13;;;24.87;59.42
40946;BME280;55635;50.264;11.918;2022-08-21T08:32:50;95705.94;;;24.88;58.67
40946;BME280;55635;50.264;11.918;2022-08-21T08:35:31;95697.22;;;25.11;60.10
40946;BME280;55635;50.264;11.918;2022-08-21T08:38:12;95702.88;;;25.30;59.02
40946;BME280;55635;50.264;11.918;2022-08-21T08:41:16;95694.19;;;25.53;57.04
40946;BME280;55635;50.264;11.918;2022-08-21T08:44:06;95697.13;;;25.57;58.74
40946;BME280;55635;50.264;11.918;2022-08-21T08:46:50;95691.97;;;25.45;58.86
40946;BME280;55635;50.264;11.918;2022-08-21T08:49:40;95695.50;;;25.45;58.82
40946;BME280;55635;50.264;11.918;2022-08-21T08:53:05;95698.84;;;25.22;58.70
40946;BME280;55635;50.264;11.918;2022-08-21T08:55:46;95689.31;;;25.20;58.71
40946;BME280;55635;50.264;11.918;2022-08-21T08:58:38;95689.03;;;25.31;58.88
40946;BME280;55635;50.264;11.918;2022-08-21T09:01:20;95687.41;;;25.30;59.26
40946;BME280;55635;50.264;11.918;2022-08-21T09:04:01;95697.97;;;25.32;58.18
40946;BME280;55635;50.264;11.918;2022-08-21T09:10:06;95702.25;;;25.63;58.06
40946;BME280;55635;50.264;11.918;2022-08-21T09:25:29;95701.97;;;27.01;54.20
40946;BME280;55635;50.264;11.918;2022-08-21T09:28:11;95691.03;;;27.35;51.73
40946;BME280;55635;50.264;11.918;2022-08-21T09:30:55;95691.94;;;27.26;52.01
40946;BME280;55635;50.264;11.918;2022-08-21T09:33:38;95687.03;;;26.65;53.16
40946;BME280;55635;50.264;11.918;2022-08-21T09:36:49;95696.88;;;26.17;53.97
40946;BME280;55635;50.264;11.918;2022-08-21T09:39:39;95703.88;;;26.28;55.23
40946;BME280;55635;50.264;11.918;2022-08-21T09:42:29;95689.34;;;25.99;55.16
40946;BME280;55635;50.264;11.918;2022-08-21T09:45:17;95692.81;;;26.10;55.58
40946;BME280;55635;50.264;11.918;2022-08-21T09:48:23;95685.50;;;26.54;52.83
40946;BME280;55635;50.264;11.918;2022-08-21T10:00:26;95669.78;;;28.78;48.48
40946;BME280;55635;50.264;11.918;2022-08-21T10:03:19;95682.78;;;28.49;48.55
40946;BME280;55635;50.264;11.918;2022-08-21T10:06:06;95682.69;;;28.91;46.47
40946;BME280;55635;50.264;11.918;2022-08-21T10:08:49;95684.03;;;29.53;45.89
40946;BME280;55635;50.264;11.918;2022-08-21T10:11:31;95670.34;;;30.08;44.89
40946;BME280;55635;50.264;11.918;2022-08-21T10:17:27;95672.41;;;30.52;42.53
40946;BME280;55635;50.264;11.918;2022-08-21T10:20:29;95655.09;;;30.65;42.76
40946;BME280;55635;50.264;11.918;2022-08-21T10:29:55;95655.16;;;30.73;40.14
40946;BME280;55635;50.264;11.918;2022-08-21T10:36:02;95667.63;;;31.02;40.40
40946;BME280;55635;50.264;11.918;2022-08-21T10:39:03;95659.22;;;31.29;37.92
40946;BME280;55635;50.264;11.918;2022-08-21T10:54:05;95644.75;;;30.40;40.73
40946;BME280;55635;50.264;11.918;2022-08-21T10:56:58;95651.75;;;29.83;41.91
40946;BME280;55635;50.264;11.918;2022-08-21T10:59:55;95657.09;;;29.47;41.23
40946;BME280;55635;50.264;11.918;2022-08-21T11:08:41;95646.75;;;30.34;39.46
40946;BME280;55635;50.264;11.918;2022-08-21T11:11:36;95645.81;;;30.74;40.31
40946;BME280;55635;50.264;11.918;2022-08-21T11:17:45;95641.91;;;30.45;40.15
40946;BME280;55635;50.264;11.918;2022-08-21T11:29:59;95635.75;;;29.90;41.15
40946;BME280;55635;50.264;11.918;2022-08-21T11:35:47;95634.84;;;29.53;42.58
40946;BME280;55635;50.264;11.918;2022-08-21T11:38:41;95632.09;;;30.30;40.65
40946;BME280;55635;50.264;11.918;2022-08-21T11:41:37;95633.56;;;30.72;37.20
40946;BME280;55635;50.264;11.918;2022-08-21T11:45:03;95610.06;;;31.80;35.84
40946;BME280;55635;50.264;11.918;2022-08-21T11:50:48;95610.41;;;31.31;35.85
40946;BME280;55635;50.264;11.918;2022-08-21T11:54:39;95610.72;;;29.83;38.66
40946;BME280;55635;50.264;11.918;2022-08-21T11:57:20;95610.00;;;29.23;39.82
40946;BME280;55635;50.264;11.918;2022-08-21T12:00:17;95604.66;;;29.72;39.54
40946;BME280;55635;50.264;11.918;2022-08-21T12:03:29;95602.94;;;28.76;40.97
40946;BME280;55635;50.264;11.918;2022-08-21T12:06:14;95599.56;;;30.29;40.09
40946;BME280;55635;50.264;11.918;2022-08-21T12:12:35;95597.19;;;31.90;36.65
40946;BME280;55635;50.264;11.918;2022-08-21T12:18:30;95604.38;;;31.51;36.00
40946;BME280;55635;50.264;11.918;2022-08-21T12:24:46;95596.88;;;30.51;39.94
40946;BME280;55635;50.264;11.918;2022-08-21T12:27:45;95593.97;;;30.11;38.64
40946;BME280;55635;50.264;11.918;2022-08-21T12:33:25;95591.41;;;29.65;36.47
40946;BME280;55635;50.264;11.918;2022-08-21T12:36:14;95592.72;;;30.17;38.60
40946;BME280;55635;50.264;11.918;2022-08-21T12:39:04;95581.03;;;29.90;37.72
40946;BME280;55635;50.264;11.918;2022-08-21T12:41:58;95586.94;;;29.42;40.85
40946;BME280;55635;50.264;11.918;2022-08-21T12:44:48;95586.63;;;29.57;41.41
40946;BME280;55635;50.264;11.918;2022-08-21T12:53:54;95582.81;;;30.08;38.03
40946;BME280;55635;50.264;11.918;2022-08-21T12:56:36;95581.69;;;29.59;39.31
40946;BME280;55635;50.264;11.918;2022-08-21T12:59:20;95573.00;;;29.30;40.67
40946;BME280;55635;50.264;11.918;2022-08-21T13:02:05;95576.22;;;29.05;39.03
40946;BME280;55635;50.264;11.918;2022-08-21T13:04:52;95572.16;;;28.89;39.42
40946;BME280;55635;50.264;11.918;2022-08-21T13:07:35;95578.56;;;28.66;40.32
40946;BME280;55635;50.264;11.918;2022-08-21T13:10:27;95576.69;;;28.93;39.58
40946;BME280;55635;50.264;11.918;2022-08-21T13:13:21;95574.75;;;28.80;39.97
40946;BME280;55635;50.264;11.918;2022-08-21T13:16:06;95568.69;;;28.97;41.87
40946;BME280;55635;50.264;11.918;2022-08-21T13:19:04;95570.72;;;29.87;37.51
40946;BME280;55635;50.264;11.918;2022-08-21T13:21:46;95563.91;;;29.35;37.37
40946;BME280;55635;50.264;11.918;2022-08-21T13:24:34;95570.56;;;30.28;38.79
40946;BME280;55635;50.264;11.918;2022-08-21T13:32:54;95568.28;;;30.43;36.65
40946;BME280;55635;50.264;11.918;2022-08-21T13:36:05;95567.91;;;30.36;36.63
40946;BME280;55635;50.264;11.918;2022-08-21T13:38:48;95574.88;;;30.20;35.92
40946;BME280;55635;50.264;11.918;2022-08-21T13:41:32;95563.91;;;29.98;36.81
40946;BME280;55635;50.264;11.918;2022-08-21T13:47:14;95562.38;;;29.29;38.00
40946;BME280;55635;50.264;11.918;2022-08-21T13:49:56;95560.91;;;28.90;39.04
40946;BME280;55635;50.264;11.918;2022-08-21T13:52:49;95558.22;;;29.94;37.75
40946;BME280;55635;50.264;11.918;2022-08-21T13:55:42;95568.50;;;30.77;36.11
40946;BME280;55635;50.264;11.918;2022-08-21T13:58:42;95554.06;;;31.16;34.15
40946;BME280;55635;50.264;11.918;2022-08-21T14:01:28;95563.13;;;31.82;34.41
40946;BME280;55635;50.264;11.918;2022-08-21T14:06:51;95559.59;;;32.42;33.31
40946;BME280;55635;50.264;11.918;2022-08-21T14:09:42;95553.66;;;32.57;33.50
40946;BME280;55635;50.264;11.918;2022-08-21T14:12:38;95556.22;;;32.70;32.33
40946;BME280;55635;50.264;11.918;2022-08-21T14:15:31;95544.38;;;32.78;32.80
40946;BME280;55635;50.264;11.918;2022-08-21T14:18:18;95542.72;;;33.12;31.05
40946;BME280;55635;50.264;11.918;2022-08-21T14:21:08;95548.44;;;31.61;32.06
40946;BME280;55635;50.264;11.918;2022-08-21T14:24:02;95545.09;;;31.98;33.33
40946;BME280;55635;50.264;11.918;2022-08-21T14:27:03;95547.56;;;31.43;34.00
40946;BME280;55635;50.264;11.918;2022-08-21T14:29:45;95540.31;;;31.08;35.01
40946;BME280;55635;50.264;11.918;2022-08-21T14:32:29;95552.00;;;30.60;35.47
40946;BME280;55635;50.264;11.918;2022-08-21T14:35:16;95547.13;;;30.13;37.98
40946;BME280;55635;50.264;11.918;2022-08-21T14:37:58;95549.50;;;30.06;37.57
40946;BME280;55635;50.264;11.918;2022-08-21T14:40:46;95545.63;;;29.71;36.82
40946;BME280;55635;50.264;11.918;2022-08-21T14:43:28;95550.09;;;29.53;38.30
40946;BME280;55635;50.264;11.918;2022-08-21T14:46:09;95552.16;;;29.34;38.42
40946;BME280;55635;50.264;11.918;2022-08-21T14:48:50;95535.13;;;29.10;38.26
40946;BME280;55635;50.264;11.918;2022-08-21T14:51:31;95549.31;;;28.98;38.35
40946;BME280;55635;50.264;11.918;2022-08-21T14:54:12;95549.16;;;28.90;39.10
40946;BME280;55635;50.264;11.918;2022-08-21T14:56:53;95543.63;;;28.95;39.33
40946;BME280;55635;50.264;11.918;2022-08-21T14:59:36;95542.59;;;29.18;38.67
40946;BME280;55635;50.264;11.918;2022-08-21T15:02:18;95549.28;;;28.85;38.46
40946;BME280;55635;50.264;11.918;2022-08-21T15:04:59;95544.44;;;29.09;38.64
40946;BME280;55635;50.264;11.918;2022-08-21T15:07:40;95538.69;;;29.24;38.23
40946;BME280;55635;50.264;11.918;2022-08-21T15:10:21;95540.97;;;29.72;38.72
40946;BME280;55635;50.264;11.918;2022-08-21T15:13:02;95530.09;;;29.80;36.43
40946;BME280;55635;50.264;11.918;2022-08-21T15:15:45;95525.72;;;29.57;37.29
40946;BME280;55635;50.264;11.918;2022-08-21T15:18:29;95530.50;;;29.24;37.89
40946;BME280;55635;50.264;11.918;2022-08-21T15:21:10;95529.56;;;29.15;39.25
40946;BME280;55635;50.264;11.918;2022-08-21T15:23:51;95529.47;;;29.20;39.14
40946;BME280;55635;50.264;11.918;2022-08-21T15:26:35;95533.16;;;29.65;38.17
40946;BME280;55635;50.264;11.918;2022-08-21T15:29:16;95531.91;;;30.43;37.45
40946;BME280;55635;50.264;11.918;2022-08-21T15:32:02;95530.84;;;30.83;36.34
40946;BME280;55635;50.264;11.918;2022-08-21T15:34:44;95531.03;;;31.17;35.14
40946;BME280;55635;50.264;11.918;2022-08-21T15:37:25;95523.34;;;31.37;36.03
40946;BME280;55635;50.264;11.918;2022-08-21T15:40:07;95527.56;;;31.43;36.11
40946;BME280;55635;50.264;11.918;2022-08-21T15:42:53;95536.47;;;31.09;36.44
40946;BME280;55635;50.264;11.918;2022-08-21T15:45:37;95526.50;;;30.51;36.38
40946;BME280;55635;50.264;11.918;2022-08-21T15:48:18;95532.25;;;30.28;37.98
40946;BME280;55635;50.264;11.918;2022-08-21T15:50:59;95532.78;;;29.94;36.77
40946;BME280;55635;50.264;11.918;2022-08-21T15:53:39;95533.13;;;29.79;37.79
40946;BME280;55635;50.264;11.918;2022-08-21T15:56:37;95530.47;;;29.51;38.55
40946;BME280;55635;50.264;11.918;2022-08-21T15:59:21;95529.34;;;29.39;39.03
40946;BME280;55635;50.264;11.918;2022-08-21T16:02:02;95525.72;;;29.57;38.84
40946;BME280;55635;50.264;11.918;2022-08-21T16:04:43;95526.88;;;29.78;38.55
40946;BME280;55635;50.264;11.918;2022-08-21T16:07:25;95519.94;;;29.94;38.99